Huvudsida
METAR-TAF:

METAR-TAF

Flygplatser :

Rajiv Gandhi Airport

Hyderabad, Indien

latitud: 17-14-00N, longitud: 078-26-00E, höjd: 617 m

Aktuellt väderrapport

Denna rapport gjordes för 39 minuter sedan, klockan 04:30 UTC
Vind 6 kt från sydväst
Temperatur 33°C
Fuktighet 36%
Tryck 1013 hPa
Sikt: 6000 m
Spridda moln på en höjd av 1500 ft

METAR: VOHS 240430Z 22006KT 6000 SCT015 33/16 Q1013 NOSIG

Tid: 10:39 (05:09 UTC)

Väderprognos

Denna rapport gjordes för 3 timmar och 9 minuter sedan, klockan 02:00 UTC
Prognos gäller från 24 kl. 03 UTC till 24 kl. 12 UTC
Vind 8 kt från väst/nordväst
Sikt: 6000 m
Spridda moln på en höjd av 1500 ft
Blir
från 24 kl. 04 UTC till 24 kl. 06 UTC
Vind 10 kt från syd/sydost
Sikt: 6000 m
Få moln på en höjd av 1500 ft
Spridda moln på en höjd av 2500 ft
Temporärt
från 24 kl. 10 UTC till 24 kl. 12 UTC
Få moln på en höjd av 3000 ft, Högtornande cumulus.

TAF: VOHS 240200Z 2403/2412 30008KT 6000 SCT015 BECMG 2404/2406 16010KT 6000 FEW015 SCT025 TEMPO 2410/2412 FEW030TCU

Aktuella väderrapporter och prognoser från 4000 flygplatser (METAR- och TAF-rapporter).

De tillgängliga stationerna syns som gula och röda prickar på kartan.

För musen över prickarna för att se namnen på stationerna.

Klicka sedan för att få väderrapporter och prognoser.

För att ändra kartan: Klicka på de gröna knapparna med ett svart kors på för att zooma in; den gröna knappen med ett streck på för att zooma ut; eller på de gröna pilarna för angränsande kartor.


METAR-TAF: